Time;durP1;ratioP1;P1;durP2;ratioP2;P2;SDS_P1;SDS_P2;PMS_P1;PMS_P2;Temp;Humidity;BMP_temperature;BMP_pressure;BME280_temperature;BME280_humidity;BME280_pressure;Samples;Min_cycle;Max_cycle;Signal;HPM_P1;HPM_P2
2023/02/27 00:03:45;;;;;;;;;;;;;;;0.33;84.79;102064.95;107228;1254;124816;-87
2023/02/27 00:06:20;;;;;;;;;;;;;;;0.22;84.54;102067.10;107419;1254;60545;-88
2023/02/27 00:08:59;;;;;;;;;;;;;;;0.11;84.56;102064.25;107524;1254;61756;-87
2023/02/27 00:11:33;;;;;;;;;;;;;;;0.01;84.44;102066.63;107312;1254;124165;-87
2023/02/27 00:14:08;;;;;;;;;;;;;;;-0.07;84.52;102069.28;107332;1254;66178;-88
2023/02/27 00:16:42;;;;;;;;;;;;;;;-0.06;84.83;102073.63;107269;1254;124403;-87
2023/02/27 00:19:12;;;;;;;;;;;;;;;0.00;85.16;102075.92;107642;1254;60469;-87
2023/02/27 00:22:01;;;;;;;;;;;;;;;0.08;85.22;102084.39;107298;1254;124838;-87
2023/02/27 00:24:35;;;;;;;;;;;;;;;0.16;85.40;102087.02;107396;1254;72342;-86
2023/02/27 00:27:02;;;;;;;;;;;;;;;0.23;85.58;102084.83;107620;1259;66868;-86
2023/02/27 00:29:29;;;;;;;;;;;;;;;0.28;85.60;102086.08;107619;1254;124203;-86
2023/02/27 00:31:56;;;;;;;;;;;;;;;0.34;85.85;102086.14;107522;1254;59171;-86
2023/02/27 00:34:23;;;;;;;;;;;;;;;0.40;85.73;102086.47;107172;1254;124616;-86
2023/02/27 00:37:03;;;;;;;;;;;;;;;0.41;85.51;102088.93;107202;1256;72474;-86
2023/02/27 00:39:36;;;;;;;;;;;;;;;0.42;85.50;102084.68;107373;1254;124932;-86
2023/02/27 00:42:08;;;;;;;;;;;;;;;0.42;85.53;102089.58;107787;1254;71391;-85
2023/02/27 00:44:37;;;;;;;;;;;;;;;0.44;85.35;102089.89;107254;1254;59742;-86
2023/02/27 00:47:04;;;;;;;;;;;;;;;0.47;85.55;102095.16;107375;1254;124687;-86
2023/02/27 00:49:31;;;;;;;;;;;;;;;0.49;85.39;102095.35;107623;1254;73421;-86
2023/02/27 00:52:10;;;;;;;;;;;;;;;0.51;85.39;102093.77;107536;1254;124238;-85
2023/02/27 00:54:38;;;;;;;;;;;;;;;0.50;85.36;102090.50;107246;1256;72549;-85
2023/02/27 00:57:08;;;;;;;;;;;;;;;0.51;85.15;102093.43;107396;1254;59500;-85
2023/02/27 00:59:35;;;;;;;;;;;;;;;0.48;84.78;102098.00;107411;1254;124230;-85
2023/02/27 01:02:07;;;;;;;;;;;;;;;0.41;84.77;102099.65;107530;1254;73555;-85
2023/02/27 01:04:34;;;;;;;;;;;;;;;0.33;84.68;102098.52;107366;1254;124138;-85
2023/02/27 01:07:02;;;;;;;;;;;;;;;0.28;84.72;102100.75;107540;1254;72610;-85
2023/02/27 01:09:30;;;;;;;;;;;;;;;0.23;84.70;102102.27;107314;1254;124384;-85
2023/02/27 01:12:33;;;;;;;;;;;;;;;0.20;84.76;102100.59;107554;1254;59666;-86
2023/02/27 01:15:07;;;;;;;;;;;;;;;0.18;84.77;102100.81;107526;1254;73928;-87
2023/02/27 01:17:41;;;;;;;;;;;;;;;0.23;85.05;102102.02;107189;1255;125119;-86
2023/02/27 01:20:10;;;;;;;;;;;;;;;0.26;85.09;102104.53;107412;1255;72736;-87
2023/02/27 01:22:37;;;;;;;;;;;;;;;0.28;84.77;102111.52;107863;1253;124604;-86
2023/02/27 01:25:04;;;;;;;;;;;;;;;0.33;84.97;102115.94;107979;1254;59796;-85
2023/02/27 01:27:33;;;;;;;;;;;;;;;0.36;85.31;102119.62;107774;1256;124440;-86
2023/02/27 01:30:10;;;;;;;;;;;;;;;0.22;86.33;102123.77;107802;1257;65825;-86
2023/02/27 01:32:42;;;;;;;;;;;;;;;-0.01;86.93;102115.17;107480;1256;71384;-85
2023/02/27 01:35:47;;;;;;;;;;;;;;;-0.13;87.10;102108.86;107208;1255;124491;-86
2023/02/27 01:45:08;;;;;;;;;;;;;;;-0.35;88.03;102124.85;107730;1255;66975;-85
2023/02/27 01:47:42;;;;;;;;;;;;;;;-0.38;87.99;102128.71;107729;1255;124807;-85
2023/02/27 01:50:09;;;;;;;;;;;;;;;-0.38;87.90;102133.36;107672;1256;60265;-86
2023/02/27 01:52:54;;;;;;;;;;;;;;;-0.35;88.21;102138.48;107483;1256;124677;-85
2023/02/27 01:55:28;;;;;;;;;;;;;;;-0.32;87.98;102143.96;107522;1256;73928;-85
2023/02/27 01:57:55;;;;;;;;;;;;;;;-0.27;88.17;102149.34;107310;1255;124740;-85
2023/02/27 02:00:34;;;;;;;;;;;;;;;-0.23;88.31;102145.31;107375;1256;71459;-85
2023/02/27 02:03:06;;;;;;;;;;;;;;;-0.15;88.41;102151.44;107847;1256;60449;-85
2023/02/27 02:05:33;;;;;;;;;;;;;;;-0.10;88.42;102149.38;107598;1256;124830;-85
2023/02/27 02:08:09;;;;;;;;;;;;;;;-0.06;88.36;102151.64;107666;1256;71470;-85
2023/02/27 02:10:42;;;;;;;;;;;;;;;-0.02;88.55;102148.94;107931;1255;124417;-85
2023/02/27 02:13:14;;;;;;;;;;;;;;;0.04;88.45;102149.89;107757;1256;71385;-86
2023/02/27 02:15:44;;;;;;;;;;;;;;;0.06;88.44;102146.48;107581;1256;124638;-85
2023/02/27 02:18:36;;;;;;;;;;;;;;;0.08;88.19;102146.65;107672;1255;60587;-86
2023/02/27 02:21:25;;;;;;;;;;;;;;;0.05;88.10;102140.86;107738;1256;73979;-86
2023/02/27 02:23:53;;;;;;;;;;;;;;;0.13;88.13;102146.09;107770;1256;65912;-85
2023/02/27 02:26:25;;;;;;;;;;;;;;;0.14;88.10;102147.59;107857;1256;72412;-85
2023/02/27 02:29:13;;;;;;;;;;;;;;;0.18;88.04;102146.73;107750;1254;124697;-85
2023/02/27 02:31:52;;;;;;;;;;;;;;;0.22;87.84;102148.09;107987;1254;60414;-85
2023/02/27 02:34:31;;;;;;;;;;;;;;;0.24;87.75;102147.53;107797;1254;124621;-85
2023/02/27 02:36:58;;;;;;;;;;;;;;;0.28;87.67;102153.73;107450;1254;67008;-86
2023/02/27 02:42:54;;;;;;;;;;;;;;;0.31;87.57;102150.92;108264;1256;58599;-84
2023/02/27 02:45:24;;;;;;;;;;;;;;;0.32;87.32;102151.75;108151;1254;59983;-86
2023/02/27 02:48:16;;;;;;;;;;;;;;;0.34;87.32;102144.46;108044;1254;124063;-86
2023/02/27 02:50:57;;;;;;;;;;;;;;;0.41;87.46;102144.22;107953;1254;67022;-85
2023/02/27 02:53:30;;;;;;;;;;;;;;;0.43;87.46;102151.80;107920;1254;124467;-85
2023/02/27 02:59:34;;;;;;;;;;;;;;;0.39;86.88;102159.12;107276;1253;124453;-88
2023/02/27 03:02:17;;;;;;;;;;;;;;;0.36;86.91;102158.53;107915;1254;73707;-87
2023/02/27 03:04:52;;;;;;;;;;;;;;;0.35;86.97;102161.84;107330;1254;124336;-86
2023/02/27 03:07:47;;;;;;;;;;;;;;;0.33;86.94;102157.51;107547;1254;71794;-86
2023/02/27 03:13:54;;;;;;;;;;;;;;;0.33;87.19;102181.15;107306;1254;59505;-86
2023/02/27 03:23:05;;;;;;;;;;;;;;;0.32;87.09;102194.88;107433;1254;124213;-87
2023/02/27 03:25:39;;;;;;;;;;;;;;;0.30;87.05;102194.41;107365;1254;59669;-87
2023/02/27 03:28:07;;;;;;;;;;;;;;;0.30;87.10;102190.97;107674;1254;124352;-86
2023/02/27 03:30:34;;;;;;;;;;;;;;;0.30;87.07;102193.33;107674;1254;72312;-87
2023/02/27 03:33:03;;;;;;;;;;;;;;;0.31;87.13;102196.93;107841;1254;67143;-86
2023/02/27 03:35:38;;;;;;;;;;;;;;;0.35;87.13;102198.94;107934;1255;124282;-87
2023/02/27 03:38:11;;;;;;;;;;;;;;;0.37;87.21;102202.48;107819;1254;60515;-87
2023/02/27 03:40:56;;;;;;;;;;;;;;;0.39;87.01;102205.68;107405;1254;124690;-87
2023/02/27 03:46:53;;;;;;;;;;;;;;;0.43;86.88;102212.47;107673;1254;124450;-87
2023/02/27 03:49:21;;;;;;;;;;;;;;;0.47;86.92;102217.62;107598;1254;71631;-87
2023/02/27 03:52:12;;;;;;;;;;;;;;;0.49;86.99;102220.97;107192;1256;124980;-88
2023/02/27 03:54:53;;;;;;;;;;;;;;;0.53;87.01;102225.21;107643;1256;59821;-88
2023/02/27 03:57:29;;;;;;;;;;;;;;;0.55;86.97;102233.89;108091;1254;72659;-88
2023/02/27 04:00:04;;;;;;;;;;;;;;;0.53;86.99;102232.36;108057;1254;124135;-87
2023/02/27 04:09:32;;;;;;;;;;;;;;;0.58;87.02;102236.09;107906;1254;60128;-87
2023/02/27 04:25:38;;;;;;;;;;;;;;;0.61;86.55;102240.96;107462;1254;59762;-88
2023/02/27 04:28:16;;;;;;;;;;;;;;;0.57;86.40;102236.98;107604;1254;125419;-87
2023/02/27 04:30:48;;;;;;;;;;;;;;;0.58;86.41;102241.64;107611;1254;64980;-86
2023/02/27 04:33:42;;;;;;;;;;;;;;;0.58;86.42;102244.20;107733;1254;71297;-87
2023/02/27 04:36:09;;;;;;;;;;;;;;;0.58;86.29;102246.94;107853;1254;60400;-87
2023/02/27 04:39:01;;;;;;;;;;;;;;;0.58;86.45;102249.34;107879;1254;60207;-87
2023/02/27 04:41:31;;;;;;;;;;;;;;;0.59;86.29;102249.25;107922;1254;124717;-86
2023/02/27 04:44:05;;;;;;;;;;;;;;;0.59;86.44;102252.58;107819;1254;66783;-86
2023/02/27 04:46:39;;;;;;;;;;;;;;;0.58;86.10;102255.77;107417;1254;124303;-86
2023/02/27 04:49:13;;;;;;;;;;;;;;;0.57;86.25;102256.38;107178;1256;61203;-86
2023/02/27 04:52:05;;;;;;;;;;;;;;;0.57;86.35;102258.27;107438;1254;60438;-86
2023/02/27 04:54:44;;;;;;;;;;;;;;;0.59;86.14;102258.97;107369;1256;72455;-86
2023/02/27 04:57:12;;;;;;;;;;;;;;;0.61;86.24;102261.70;107548;1254;66024;-86
2023/02/27 04:59:47;;;;;;;;;;;;;;;0.60;86.03;102264.56;107214;1254;124848;-87
2023/02/27 05:02:28;;;;;;;;;;;;;;;0.61;86.07;102266.88;107270;1255;60471;-86
2023/02/27 05:05:07;;;;;;;;;;;;;;;0.61;85.83;102266.39;107193;1254;124792;-88
2023/02/27 05:07:55;;;;;;;;;;;;;;;0.61;86.02;102266.03;107212;1256;73581;-87
2023/02/27 05:10:26;;;;;;;;;;;;;;;0.62;85.93;102269.89;107343;1258;124472;-87
2023/02/27 05:12:55;;;;;;;;;;;;;;;0.64;85.79;102269.54;107332;1256;71499;-88
2023/02/27 05:15:36;;;;;;;;;;;;;;;0.66;85.82;102272.38;107364;1254;59755;-87
2023/02/27 05:18:07;;;;;;;;;;;;;;;0.68;85.74;102275.11;107243;1254;124266;-86
2023/02/27 05:23:46;;;;;;;;;;;;;;;0.73;85.74;102281.66;107900;1256;124345;-87
2023/02/27 05:26:18;;;;;;;;;;;;;;;0.75;85.65;102281.32;108139;1254;71948;-89
2023/02/27 05:28:47;;;;;;;;;;;;;;;0.75;85.50;102284.24;107861;1254;124297;-87
2023/02/27 05:31:41;;;;;;;;;;;;;;;0.76;85.64;102280.04;107651;1255;60110;-87
2023/02/27 05:34:34;;;;;;;;;;;;;;;0.79;85.36;102288.71;107510;1254;125273;-87
2023/02/27 05:37:19;;;;;;;;;;;;;;;0.80;85.29;102290.01;107288;1255;66753;-86
2023/02/27 05:40:05;;;;;;;;;;;;;;;0.83;85.31;102291.48;107469;1254;72716;-87
2023/02/27 05:42:46;;;;;;;;;;;;;;;0.85;84.95;102294.65;107434;1254;60403;-88
2023/02/27 05:45:36;;;;;;;;;;;;;;;0.87;85.01;102298.63;107553;1254;60187;-87
2023/02/27 05:48:41;;;;;;;;;;;;;;;0.91;85.00;102305.66;107419;1254;124810;-89
2023/02/27 05:51:08;;;;;;;;;;;;;;;0.95;84.79;102311.56;107161;1262;67569;-89
2023/02/27 05:53:52;;;;;;;;;;;;;;;0.98;84.75;102314.73;106985;1265;124526;-89
2023/02/27 05:56:25;;;;;;;;;;;;;;;1.01;84.63;102320.69;107035;1261;60425;-80
2023/02/27 05:58:59;;;;;;;;;;;;;;;1.04;84.72;102320.86;107080;1260;124290;-81
2023/02/27 06:01:27;;;;;;;;;;;;;;;1.07;84.63;102323.30;107369;1260;72714;-84
2023/02/27 06:03:57;;;;;;;;;;;;;;;1.11;84.54;102328.23;107025;1261;124789;-82
2023/02/27 06:06:24;;;;;;;;;;;;;;;1.13;84.36;102335.86;107156;1261;72543;-81
2023/02/27 06:08:52;;;;;;;;;;;;;;;1.15;84.31;102337.23;107733;1260;60521;-81
2023/02/27 06:11:27;;;;;;;;;;;;;;;1.18;84.15;102338.77;107178;1261;124459;-82
2023/02/27 06:13:57;;;;;;;;;;;;;;;1.19;84.17;102341.45;107709;1261;73968;-82
2023/02/27 06:16:24;;;;;;;;;;;;;;;1.21;83.97;102347.92;107242;1260;125711;-82
2023/02/27 06:18:51;;;;;;;;;;;;;;;1.24;84.16;102352.31;107637;1260;72391;-82
2023/02/27 06:21:18;;;;;;;;;;;;;;;1.28;84.02;102351.64;107684;1261;58658;-82
2023/02/27 06:23:45;;;;;;;;;;;;;;;1.33;84.08;102360.05;108016;1254;126549;-82
2023/02/27 06:26:13;;;;;;;;;;;;;;;1.36;83.95;102357.20;108198;1254;74229;-83
2023/02/27 06:28:41;;;;;;;;;;;;;;;1.42;83.67;102363.89;107741;1254;124597;-83
2023/02/27 06:31:14;;;;;;;;;;;;;;;1.44;83.52;102365.64;107774;1254;72076;-80
2023/02/27 06:33:41;;;;;;;;;;;;;;;1.48;83.51;102362.02;108066;1254;59633;-81
2023/02/27 06:36:08;;;;;;;;;;;;;;;1.54;83.46;102364.87;107614;1259;125025;-87
2023/02/27 06:39:09;;;;;;;;;;;;;;;1.63;83.45;102364.85;107526;1254;73734;-81
2023/02/27 06:41:38;;;;;;;;;;;;;;;1.71;83.36;102367.20;107979;1254;124788;-86
2023/02/27 06:44:05;;;;;;;;;;;;;;;1.79;83.14;102368.19;108482;1259;71387;-81
2023/02/27 06:46:32;;;;;;;;;;;;;;;1.88;83.29;102369.16;108331;1254;124382;-82
2023/02/27 06:49:00;;;;;;;;;;;;;;;1.97;83.18;102368.02;108398;1254;61171;-80
2023/02/27 06:51:27;;;;;;;;;;;;;;;2.06;83.04;102370.98;108098;1257;72739;-81
2023/02/27 06:53:54;;;;;;;;;;;;;;;2.14;82.88;102372.04;108274;1254;124336;-82
2023/02/27 06:56:34;;;;;;;;;;;;;;;2.27;82.90;102374.52;107956;1254;72710;-88
2023/02/27 06:59:02;;;;;;;;;;;;;;;2.43;82.79;102379.81;107755;1254;124344;-82
2023/02/27 07:01:29;;;;;;;;;;;;;;;2.55;82.64;102383.59;107970;1254;61103;-87
2023/02/27 07:04:02;;;;;;;;;;;;;;;2.59;82.20;102389.16;107961;1254;124825;-84
2023/02/27 07:06:29;;;;;;;;;;;;;;;2.62;81.84;102390.25;108328;1254;67060;-82
2023/02/27 07:08:56;;;;;;;;;;;;;;;2.69;82.03;102393.75;109020;1254;70425;-81
2023/02/27 07:11:24;;;;;;;;;;;;;;;2.81;82.08;102398.75;108768;1254;124793;-81
2023/02/27 07:13:51;;;;;;;;;;;;;;;2.86;81.60;102401.14;107926;1254;61055;-81
2023/02/27 07:16:18;;;;;;;;;;;;;;;2.89;81.32;102404.32;107682;1255;124478;-81
2023/02/27 07:18:45;;;;;;;;;;;;;;;2.94;81.22;102405.38;107858;1258;66701;-81
2023/02/27 07:21:14;;;;;;;;;;;;;;;3.01;81.02;102409.59;107987;1258;71374;-81
2023/02/27 07:23:49;;;;;;;;;;;;;;;3.05;80.93;102411.83;107829;1256;123613;-83
2023/02/27 07:26:18;;;;;;;;;;;;;;;3.08;80.49;102412.95;107856;1257;61619;-81
2023/02/27 07:28:45;;;;;;;;;;;;;;;3.14;80.61;102418.98;107682;1258;123951;-84
2023/02/27 07:31:21;;;;;;;;;;;;;;;3.19;80.39;102421.48;107779;1254;67053;-93
2023/02/27 07:33:53;;;;;;;;;;;;;;;3.25;80.25;102422.50;107878;1256;72698;-83
2023/02/27 07:36:23;;;;;;;;;;;;;;;3.29;79.91;102427.31;107884;1255;124208;-85
2023/02/27 07:38:57;;;;;;;;;;;;;;;3.32;79.88;102424.61;107791;1254;60462;-85
2023/02/27 07:41:24;;;;;;;;;;;;;;;3.39;79.74;102425.89;107827;1254;73884;-88
2023/02/27 07:43:51;;;;;;;;;;;;;;;3.49;79.56;102429.10;107784;1254;66766;-85
2023/02/27 07:46:19;;;;;;;;;;;;;;;3.57;79.61;102428.66;107822;1254;71352;-85
2023/02/27 07:48:47;;;;;;;;;;;;;;;3.70;79.50;102431.14;107792;1255;60447;-85
2023/02/27 07:51:15;;;;;;;;;;;;;;;3.84;79.27;102433.10;107904;1254;58804;-86
2023/02/27 07:53:55;;;;;;;;;;;;;;;3.93;78.97;102431.38;108043;1254;73956;-87
2023/02/27 07:56:35;;;;;;;;;;;;;;;4.02;78.83;102435.40;107961;1254;67344;-88
2023/02/27 07:59:15;;;;;;;;;;;;;;;4.13;78.70;102437.79;107320;1257;73372;-88
2023/02/27 08:02:01;;;;;;;;;;;;;;;4.28;78.51;102437.38;107435;1254;59133;-88
2023/02/27 08:04:34;;;;;;;;;;;;;;;4.40;78.17;102436.74;107277;1257;123645;-87
2023/02/27 08:07:17;;;;;;;;;;;;;;;4.53;78.16;102434.44;107477;1254;73710;-87
2023/02/27 08:09:52;;;;;;;;;;;;;;;4.67;77.91;102433.79;107354;1254;65637;-86
2023/02/27 08:12:21;;;;;;;;;;;;;;;4.78;77.44;102432.54;107477;1257;123646;-87
2023/02/27 08:15:04;;;;;;;;;;;;;;;4.87;77.07;102435.77;107628;1254;59187;-87
2023/02/27 08:17:38;;;;;;;;;;;;;;;4.95;76.50;102436.36;107689;1254;124051;-88
2023/02/27 08:20:10;;;;;;;;;;;;;;;5.00;76.38;102439.54;108227;1257;72581;-88
2023/02/27 08:22:37;;;;;;;;;;;;;;;5.17;76.76;102443.09;108037;1254;124738;-87
2023/02/27 08:25:06;;;;;;;;;;;;;;;5.36;76.82;102444.80;108347;1255;72438;-80
2023/02/27 08:27:33;;;;;;;;;;;;;;;5.50;76.75;102442.35;108019;1257;60601;-81
2023/02/27 08:30:00;;;;;;;;;;;;;;;5.64;76.60;102447.20;108106;1256;125448;-80
2023/02/27 08:32:27;;;;;;;;;;;;;;;5.81;76.49;102447.16;107991;1254;73856;-80
2023/02/27 08:34:57;;;;;;;;;;;;;;;5.96;76.23;102447.53;107542;1256;124287;-88
2023/02/27 08:37:27;;;;;;;;;;;;;;;6.01;75.71;102447.38;107815;1254;72156;-81
2023/02/27 08:39:56;;;;;;;;;;;;;;;6.04;75.57;102451.65;107965;1254;60342;-89
2023/02/27 08:42:24;;;;;;;;;;;;;;;5.97;74.66;102458.64;107895;1254;123853;-88
2023/02/27 08:44:53;;;;;;;;;;;;;;;5.88;73.60;102462.98;108084;1254;73999;-89
2023/02/27 08:47:20;;;;;;;;;;;;;;;5.82;72.82;102463.46;107741;1255;123617;-88
2023/02/27 08:49:48;;;;;;;;;;;;;;;5.80;72.61;102467.45;107566;1256;71487;-88
2023/02/27 08:52:15;;;;;;;;;;;;;;;5.79;72.27;102470.91;107381;1257;123933;-82
2023/02/27 08:54:49;;;;;;;;;;;;;;;5.85;72.18;102470.47;108352;1254;59079;-81
2023/02/27 08:58:01;;;;;;;;;;;;;;;;;;;;;
2023/02/27 09:00:54;;;;;;;;;;;;;;;5.77;70.93;102475.15;107566;1259;65957;-90
2023/02/27 09:03:21;;;;;;;;;;;;;;;5.70;70.61;102485.91;107677;1254;72280;-90
2023/02/27 09:05:59;;;;;;;;;;;;;;;5.59;70.37;102485.47;107555;1254;123932;-89
2023/02/27 09:08:40;;;;;;;;;;;;;;;5.57;69.87;102488.63;107648;1254;59976;-87
2023/02/27 09:11:17;;;;;;;;;;;;;;;5.49;69.33;102495.17;108349;1254;124200;-86
2023/02/27 09:13:51;;;;;;;;;;;;;;;5.48;69.59;102494.09;107523;1255;65867;-89
2023/02/27 09:16:29;;;;;;;;;;;;;;;5.55;69.56;102487.23;107738;1255;123791;-79
2023/02/27 09:19:28;;;;;;;;;;;;;;;5.52;69.31;102493.29;107871;1255;59217;-87
2023/02/27 09:22:01;;;;;;;;;;;;;;;5.41;69.12;102498.96;108125;1254;60391;-90
2023/02/27 09:24:28;;;;;;;;;;;;;;;5.30;68.82;102497.05;107776;1255;123996;-89
2023/02/27 09:26:58;;;;;;;;;;;;;;;5.22;68.49;102500.70;107977;1254;66884;-90
2023/02/27 09:29:26;;;;;;;;;;;;;;;5.25;68.71;102504.73;108580;1255;123616;-90
2023/02/27 09:31:53;;;;;;;;;;;;;;;5.28;68.55;102501.65;108094;1256;60399;-90
2023/02/27 09:34:26;;;;;;;;;;;;;;;5.25;68.28;102504.41;107604;1254;123796;-88
2023/02/27 09:37:00;;;;;;;;;;;;;;;5.25;68.27;102505.65;107530;1254;73953;-86
2023/02/27 09:39:27;;;;;;;;;;;;;;;5.15;67.81;102510.48;107713;1258;65774;-87
2023/02/27 09:42:01;;;;;;;;;;;;;;;4.98;67.46;102512.45;107652;1254;251409;-88
2023/02/27 09:44:39;;;;;;;;;;;;;;;4.90;67.25;102513.27;107762;1257;60251;-88
2023/02/27 09:47:10;;;;;;;;;;;;;;;4.83;66.87;102514.08;107668;1255;124200;-88
2023/02/27 09:49:46;;;;;;;;;;;;;;;4.85;67.04;102517.93;107672;1254;73678;-88
2023/02/27 09:52:14;;;;;;;;;;;;;;;4.99;66.45;102516.91;107425;1254;67626;-89
2023/02/27 09:54:54;;;;;;;;;;;;;;;4.97;66.10;102519.21;107943;1257;74972;-86
2023/02/27 09:57:27;;;;;;;;;;;;;;;4.80;65.80;102523.42;107616;1256;59566;-87
2023/02/27 10:00:03;;;;;;;;;;;;;;;4.61;65.73;102526.20;108081;1255;123731;-86
2023/02/27 10:02:43;;;;;;;;;;;;;;;4.44;65.52;102526.80;107921;1255;73964;-80
2023/02/27 10:08:49;;;;;;;;;;;;;;;4.33;65.99;102532.11;107951;1254;73529;-88
2023/02/27 10:14:04;;;;;;;;;;;;;;;4.27;65.81;102542.30;108137;1254;59280;-89
2023/02/27 10:23:38;;;;;;;;;;;;;;;4.28;65.57;102549.51;107822;1254;71902;-88
2023/02/27 10:26:07;;;;;;;;;;;;;;;4.21;65.62;102550.15;108055;1255;60392;-87
2023/02/27 10:28:36;;;;;;;;;;;;;;;4.29;65.75;102551.83;107884;1255;122801;-89
2023/02/27 10:31:11;;;;;;;;;;;;;;;4.32;65.31;102554.67;107799;1254;73861;-88
2023/02/27 10:33:39;;;;;;;;;;;;;;;4.38;65.21;102554.23;108033;1254;66987;-89
2023/02/27 10:36:10;;;;;;;;;;;;;;;4.43;65.25;102562.98;107979;1254;123690;-82
2023/02/27 10:38:41;;;;;;;;;;;;;;;4.50;65.12;102561.64;108069;1254;60329;-82
2023/02/27 10:41:09;;;;;;;;;;;;;;;4.58;65.03;102561.36;107879;1255;123753;-82
2023/02/27 10:43:36;;;;;;;;;;;;;;;4.68;64.80;102564.41;107835;1256;72621;-90
2023/02/27 10:46:06;;;;;;;;;;;;;;;4.67;64.46;102563.16;107557;1257;65597;-90
2023/02/27 10:48:35;;;;;;;;;;;;;;;4.65;64.32;102562.49;107706;1254;123592;-90
2023/02/27 10:51:21;;;;;;;;;;;;;;;4.58;64.29;102560.55;107767;1256;60584;-89
2023/02/27 10:53:52;;;;;;;;;;;;;;;4.47;63.77;102563.64;107508;1254;123565;-89
2023/02/27 10:56:23;;;;;;;;;;;;;;;4.43;63.93;102562.49;107791;1254;73869;-90
2023/02/27 10:59:03;;;;;;;;;;;;;;;4.48;63.95;102562.72;107820;1254;123994;-89
2023/02/27 11:01:48;;;;;;;;;;;;;;;4.55;63.92;102566.02;107615;1254;73413;-89
2023/02/27 11:04:22;;;;;;;;;;;;;;;4.65;63.82;102568.26;107620;1260;59669;-88
2023/02/27 11:06:51;;;;;;;;;;;;;;;4.70;63.62;102568.09;107621;1254;60178;-88
2023/02/27 11:09:20;;;;;;;;;;;;;;;4.66;63.23;102567.77;107868;1257;73901;-89
2023/02/27 11:11:48;;;;;;;;;;;;;;;4.71;63.32;102568.13;107578;1259;123749;-88
2023/02/27 11:14:18;;;;;;;;;;;;;;;4.72;62.80;102563.88;107800;1257;71234;-88
2023/02/27 11:16:48;;;;;;;;;;;;;;;4.65;62.49;102571.33;107813;1254;123843;-89
2023/02/27 11:19:33;;;;;;;;;;;;;;;4.52;62.44;102573.40;108095;1255;58697;-89
2023/02/27 11:22:14;;;;;;;;;;;;;;;4.56;63.08;102577.39;108168;1257;72147;-88
2023/02/27 11:24:44;;;;;;;;;;;;;;;4.69;63.11;102583.14;107893;1255;123349;-89
2023/02/27 11:27:27;;;;;;;;;;;;;;;4.74;62.65;102586.30;108075;1254;72584;-92
2023/02/27 11:29:58;;;;;;;;;;;;;;;4.88;62.84;102591.59;107734;1256;123771;-89
2023/02/27 11:32:31;;;;;;;;;;;;;;;5.05;62.66;102581.89;107928;1257;60707;-90
2023/02/27 11:34:58;;;;;;;;;;;;;;;5.24;62.69;102582.98;107955;1254;124238;-89
2023/02/27 11:37:25;;;;;;;;;;;;;;;5.39;62.56;102582.74;108037;1256;66029;-88
2023/02/27 11:39:57;;;;;;;;;;;;;;;5.61;62.53;102584.40;107981;1259;71472;-92
2023/02/27 11:42:49;;;;;;;;;;;;;;;5.87;62.12;102580.01;107966;1255;123818;-90
2023/02/27 11:45:29;;;;;;;;;;;;;;;6.15;62.08;102579.66;108363;1254;59862;-90
2023/02/27 11:47:58;;;;;;;;;;;;;;;6.43;61.92;102576.20;108089;1254;123693;-91
2023/02/27 11:50:40;;;;;;;;;;;;;;;6.63;60.93;102580.62;108166;1255;66959;-89
2023/02/27 11:53:13;;;;;;;;;;;;;;;6.46;60.33;102576.27;108229;1254;123943;-89
2023/02/27 11:55:40;;;;;;;;;;;;;;;6.26;60.29;102576.95;108486;1255;60460;-89
2023/02/27 11:58:17;;;;;;;;;;;;;;;6.31;60.09;102578.85;108303;1258;60399;-89
2023/02/27 12:00:46;;;;;;;;;;;;;;;6.31;60.08;102577.63;108316;1254;123460;-84
2023/02/27 12:03:32;;;;;;;;;;;;;;;6.38;60.36;102582.86;108520;1256;64916;-84
2023/02/27 12:05:59;;;;;;;;;;;;;;;6.28;59.81;102582.66;108121;1255;123748;-84
2023/02/27 12:08:34;;;;;;;;;;;;;;;6.32;60.25;102579.78;108175;1257;59269;-84
2023/02/27 12:11:04;;;;;;;;;;;;;;;6.38;60.26;102582.50;108329;1254;124378;-82
2023/02/27 12:13:32;;;;;;;;;;;;;;;6.36;60.16;102586.41;107982;1261;74127;-83
2023/02/27 12:16:01;;;;;;;;;;;;;;;6.30;59.77;102582.30;107807;1255;65883;-82
2023/02/27 12:18:37;;;;;;;;;;;;;;;6.18;59.70;102584.25;107736;1256;123557;-83
2023/02/27 12:21:12;;;;;;;;;;;;;;;6.14;59.75;102584.46;108034;1255;60379;-84
2023/02/27 12:23:43;;;;;;;;;;;;;;;6.11;59.49;102588.39;107985;1255;123779;-84
2023/02/27 12:26:14;;;;;;;;;;;;;;;6.02;59.51;102586.52;108036;1259;74425;-83
2023/02/27 12:29:00;;;;;;;;;;;;;;;5.91;59.42;102586.21;107932;1256;123766;-84
2023/02/27 12:31:33;;;;;;;;;;;;;;;5.68;59.35;102588.73;107928;1257;72685;-84
2023/02/27 12:34:13;;;;;;;;;;;;;;;5.50;59.37;102597.80;107824;1256;60566;-83
2023/02/27 12:36:47;;;;;;;;;;;;;;;5.33;59.23;102600.01;107836;1256;123628;-83
2023/02/27 12:39:27;;;;;;;;;;;;;;;5.16;59.28;102601.02;107971;1254;74136;-84
2023/02/27 12:42:00;;;;;;;;;;;;;;;5.05;59.38;102606.27;107952;1254;124325;-83
2023/02/27 12:44:31;;;;;;;;;;;;;;;4.93;59.25;102606.58;108017;1256;73690;-90
2023/02/27 12:47:07;;;;;;;;;;;;;;;4.76;59.28;102612.69;107979;1257;124108;-91
2023/02/27 12:49:42;;;;;;;;;;;;;;;4.65;59.45;102608.17;108140;1254;60348;-87
2023/02/27 12:52:21;;;;;;;;;;;;;;;4.63;59.63;102609.44;107993;1259;74394;-87
2023/02/27 12:54:52;;;;;;;;;;;;;;;4.57;59.66;102615.23;107997;1259;69197;-86
2023/02/27 12:57:19;;;;;;;;;;;;;;;4.52;59.42;102621.96;107867;1255;72704;-87
2023/02/27 12:59:50;;;;;;;;;;;;;;;4.41;59.02;102626.13;107850;1255;123751;-86
2023/02/27 13:02:25;;;;;;;;;;;;;;;4.36;59.45;102627.95;107958;1257;60252;-88
2023/02/27 13:04:58;;;;;;;;;;;;;;;4.47;59.71;102628.86;107732;1257;123737;-86
2023/02/27 13:07:44;;;;;;;;;;;;;;;4.56;59.42;102628.67;107829;1256;67101;-86
2023/02/27 13:10:22;;;;;;;;;;;;;;;4.44;59.23;102628.63;107885;1256;72702;-87
2023/02/27 13:12:53;;;;;;;;;;;;;;;4.33;59.27;102628.07;107898;1254;59698;-86
2023/02/27 13:15:27;;;;;;;;;;;;;;;4.18;58.67;102630.15;107651;1255;59683;-87
2023/02/27 13:18:02;;;;;;;;;;;;;;;3.97;58.18;102626.22;107618;1259;123873;-87
2023/02/27 13:20:35;;;;;;;;;;;;;;;3.83;58.78;102625.80;107694;1254;67114;-86
2023/02/27 13:23:06;;;;;;;;;;;;;;;3.73;58.88;102629.15;107495;1254;123888;-88
2023/02/27 13:25:35;;;;;;;;;;;;;;;3.63;58.81;102634.59;107555;1260;59384;-88
2023/02/27 13:28:03;;;;;;;;;;;;;;;3.57;58.95;102635.98;107570;1255;59503;-87
2023/02/27 13:31:03;;;;;;;;;;;;;;;3.56;59.19;102632.94;107781;1254;123544;-87
2023/02/27 13:33:46;;;;;;;;;;;;;;;3.53;59.30;102630.02;107395;1257;66041;-88
2023/02/27 13:36:49;;;;;;;;;;;;;;;3.60;59.34;102632.34;107737;1254;123515;-90
2023/02/27 13:39:37;;;;;;;;;;;;;;;3.63;59.37;102639.23;108194;1254;60437;-90
2023/02/27 13:42:25;;;;;;;;;;;;;;;3.54;59.10;102642.17;107737;1259;123557;-87
2023/02/27 13:44:53;;;;;;;;;;;;;;;3.41;59.09;102641.23;107937;1254;73994;-88
2023/02/27 13:47:29;;;;;;;;;;;;;;;3.37;59.49;102642.05;107664;1254;123646;-91
2023/02/27 13:50:03;;;;;;;;;;;;;;;3.39;59.77;102640.84;107803;1257;73594;-91
2023/02/27 13:53:09;;;;;;;;;;;;;;;3.35;59.58;102648.49;107809;1254;124046;-88
2023/02/27 13:55:41;;;;;;;;;;;;;;;3.20;59.24;102652.66;108065;1260;60306;-86
2023/02/27 13:58:15;;;;;;;;;;;;;;;3.08;59.15;102648.64;108194;1259;74636;-82
2023/02/27 14:00:42;;;;;;;;;;;;;;;3.00;59.45;102650.53;108033;1257;123852;-83
2023/02/27 14:03:15;;;;;;;;;;;;;;;2.89;59.50;102647.91;107974;1257;71079;-90
2023/02/27 14:05:43;;;;;;;;;;;;;;;2.79;59.47;102649.98;108215;1254;123494;-91
2023/02/27 14:08:59;;;;;;;;;;;;;;;2.69;59.65;102646.89;108244;1254;61269;-92
2023/02/27 14:11:33;;;;;;;;;;;;;;;2.70;59.83;102647.29;107920;1254;123675;-92
2023/02/27 14:14:04;;;;;;;;;;;;;;;2.66;59.90;102644.37;107886;1259;67465;-88
2023/02/27 14:16:40;;;;;;;;;;;;;;;2.65;60.07;102647.74;107726;1256;124081;-90